Latest Weather Observations for Hogan Island

IDT60801

Issued at 10:31 am EDT Sunday 22 January 2017 (issued every 30 minutes, with the page automatically refreshed every 10 minutes)

About weather observations | Map of weather stations | Latest weather observations for TAS | Other Formats
Station Details ID: 200838 Name: HOGAN ISLAND Lat: -39.22 Lon: 146.98 Height: 116.0 m
Data from the previous 72 hours. | See also: Recent months at Hogan Island
Date/Time
EDT
Temp
°C
App
Temp
°C
Dew
Point
°C
Rel
Hum
%
Delta-T
°C
Wind Press
QNH
hPa
Press
MSL
hPa
Rain since
9am
mm
Dir  Spd
km/h
Gust
km/h
Spd
kts
Gust
kts
22/10:30am 18.7 - 18.9 - - WNW 13 15 7 8 1016.9 - 0.0
22/10:00am 18.2 - 18.4 - - W 13 17 7 9 1017.0 - 0.0
22/09:30am 17.6 - 17.8 - - W 15 17 8 9 1017.1 - 0.0
22/09:00am 17.6 - 17.8 - - W 15 19 8 10 1017.3 1017.1 0.0
22/08:30am 17.1 - 17.4 - - WNW 15 17 8 9 1017.2 - 0.0
22/08:00am 16.2 - 16.7 - - WNW 15 17 8 9 1017.1 - 0.0
22/07:30am 15.9 - 16.5 - - WNW 17 20 9 11 1016.8 - 0.0
22/07:00am 15.1 - 15.9 - - W 15 17 8 9 1016.7 - 0.0
22/06:30am 14.7 - 15.5 - - W 15 19 8 10 1016.2 - 0.0
22/06:00am 14.7 - 15.3 - - W 20 22 11 12 1016.0 1015.8 0.0
22/05:30am 14.9 - 15.5 - - W 20 26 11 14 1016.1 - 0.0
22/05:00am 14.8 - 15.4 - - W 24 30 13 16 1015.7 - 0.0
22/04:30am 15.0 - 15.6 - - W 24 26 13 14 1015.4 - 0.0
22/04:00am 14.7 - 15.3 - - W 26 30 14 16 1015.1 - 0.0
22/03:30am 14.8 - 15.4 - - W 28 33 15 18 1015.3 - 0.0
22/03:00am 14.7 - 15.3 - - W 28 30 15 16 1015.2 1015.0 0.0
22/02:30am 14.9 - 15.4 - - W 30 33 16 18 1015.2 - 0.0
22/02:00am 14.9 - 15.4 - - W 30 33 16 18 1015.3 - 0.0
22/01:30am 14.8 - 15.3 - - W 30 33 16 18 1015.6 - 0.0
22/01:00am 14.9 - 15.4 - - W 26 30 14 16 1015.8 - 0.0
22/12:30am 14.9 - 15.5 - - W 30 33 16 18 1015.9 - 0.0
22/12:00am 15.1 - 15.7 - - W 28 32 15 17 1016.1 1015.9 0.0
 
Date/Time
EDT
Temp
°C
App
Temp
°C
Dew
Point
°C
Rel
Hum
%
Delta-T
°C
Wind Press
QNH
hPa
Press
MSL
hPa
Rain since
9am
mm
Dir  Spd
km/h
Gust
km/h
Spd
kts
Gust
kts
21/11:30pm 15.1 - 15.6 - - WSW 30 33 16 18 1016.2 - 0.0
21/11:00pm 15.4 - 15.9 - - W 32 37 17 20 1016.3 - 0.0
21/10:30pm 15.4 - 15.9 - - W 33 39 18 21 1016.4 - 0.0
21/10:00pm 15.4 - 15.9 - - W 33 39 18 21 1016.3 - 0.0
21/09:30pm 15.5 - 16.0 - - W 39 43 21 23 1016.3 - 0.0
21/09:00pm 15.5 - 15.8 - - W 39 44 21 24 1016.0 1015.8 0.0
21/08:30pm 15.8 - 16.0 - - W 39 44 21 24 1015.9 - 0.0
21/08:00pm 16.4 11.5 16.4 100 0.0 W 37 43 20 23 1015.5 - 0.0
21/07:30pm 16.7 11.9 16.7 100 0.0 W 37 43 20 23 1015.2 - 0.0
21/07:00pm 17.3 12.8 17.3 100 0.0 W 37 43 20 23 1014.9 - 0.0
21/06:30pm 17.9 13.9 17.7 99 0.1 W 35 41 19 22 1014.7 - 0.0
21/06:00pm 18.5 14.2 17.8 96 0.4 W 37 43 20 23 1014.7 1014.5 0.0
21/05:30pm 18.7 14.1 17.9 95 0.5 W 39 44 21 24 1014.8 - 0.0
21/05:00pm 18.9 14.3 17.9 94 0.6 W 39 44 21 24 1014.9 - 0.0
21/04:30pm 19.2 14.4 17.5 90 1.0 WSW 39 44 21 24 1015.0 - 0.0
21/04:00pm 19.2 13.8 17.9 92 0.8 W 43 48 23 26 1015.0 - 0.0
21/03:30pm 19.2 13.8 17.9 92 0.8 W 43 48 23 26 1014.9 - 0.0
21/03:00pm 19.0 13.2 17.5 91 0.9 W 44 52 24 28 1014.8 1014.6 0.0
21/02:30pm 19.1 13.6 17.6 91 0.9 W 43 50 23 27 1014.5 - 0.0
21/02:00pm 19.2 13.5 17.2 88 1.2 WSW 43 50 23 27 1014.5 - 0.0
21/01:30pm 19.5 14.1 17.1 86 1.5 WSW 41 48 22 26 1014.5 - 0.0
21/01:00pm 18.9 13.5 16.9 88 1.2 WSW 41 48 22 26 1014.6 - 0.0
21/12:30pm 18.2 12.4 17.0 93 0.7 WSW 43 48 23 26 1014.4 - 0.0
21/12:00pm 18.5 13.6 17.3 93 0.7 WSW 39 44 21 24 1014.3 1014.1 0.0
21/11:30am 18.4 13.6 17.6 95 0.5 WSW 39 46 21 25 1014.2 - 0.0
21/11:00am 17.7 11.9 16.9 95 0.5 WSW 43 54 23 29 1013.9 - 0.0
21/10:30am 16.9 10.8 16.1 95 0.5 WSW 43 52 23 28 1013.5 - 0.0
21/10:00am 16.7 10.5 16.5 99 0.1 WSW 44 54 24 29 1013.4 - 0.0
21/09:30am 16.1 9.9 15.9 99 0.1 WSW 43 50 23 27 1013.0 - 0.0
21/09:00am 15.4 8.8 15.4 100 0.0 WSW 44 54 24 29 1012.7 1012.5 1.6
21/08:30am 15.2 7.4 15.2 100 0.0 WSW 50 59 27 32 1012.1 - 1.6
21/08:00am 14.8 6.9 14.8 100 0.0 WSW 50 59 27 32 1011.7 - 1.6
21/07:30am 14.1 5.9 14.1 100 0.0 WSW 50 59 27 32 1011.1 - 1.6
21/07:00am 13.8 6.6 13.8 100 0.0 WSW 44 57 24 31 1010.5 - 1.4
21/06:30am 13.7 5.0 13.7 100 0.0 WSW 52 61 28 33 1009.9 - 1.4
21/06:00am 13.7 5.4 13.7 100 0.0 WSW 50 59 27 32 1009.4 1009.2 1.4
21/05:30am 13.8 5.9 13.8 100 0.0 WSW 48 57 26 31 1009.0 - 1.4
21/05:00am 13.7 - 13.9 - - WSW 50 63 27 34 1008.5 - 1.4
21/04:30am 13.7 - 13.9 - - WSW 48 61 26 33 1008.4 - 1.4
21/04:00am 13.6 - 13.8 - - WSW 56 65 30 35 1007.7 - 1.4
21/03:30am 13.5 - 13.7 - - WSW 54 63 29 34 1007.4 - 1.4
21/03:00am 13.8 - 14.0 - - WSW 56 65 30 35 1007.2 1007.0 1.4
21/02:30am 13.5 - 13.7 - - WSW 54 63 29 34 1006.7 - 1.4
21/02:00am 13.8 - 14.0 - - WSW 52 61 28 33 1006.9 - 1.4
21/01:30am 13.9 - 14.2 - - WSW 52 59 28 32 1006.5 - 1.4
21/01:00am 14.2 - 14.5 - - SW 48 54 26 29 1006.6 - 1.4
21/12:30am 14.2 - 14.5 - - WSW 50 59 27 32 1006.4 - 1.4
21/12:00am 14.5 - 14.8 - - WSW 54 61 29 33 1006.3 1006.1 1.4
 
Date/Time
EDT
Temp
°C
App
Temp
°C
Dew
Point
°C
Rel
Hum
%
Delta-T
°C
Wind Press
QNH
hPa
Press
MSL
hPa
Rain since
9am
mm
Dir  Spd
km/h
Gust
km/h
Spd
kts
Gust
kts
20/11:30pm 14.6 - 14.9 - - WSW 50 59 27 32 1006.0 - 1.4
20/11:00pm 14.6 - 14.9 - - WSW 50 59 27 32 1005.8 - 1.4
20/10:30pm 14.8 - 15.1 - - SW 56 69 30 37 1005.7 - 1.4
20/10:00pm 14.8 - 15.1 - - WSW 59 70 32 38 1004.8 - 1.4
20/09:30pm 14.9 - 15.4 - - WSW 57 70 31 38 1004.5 - 1.4
20/09:00pm 15.1 - 15.7 - - WSW 63 74 34 40 1003.8 1003.6 1.4
20/08:30pm 15.4 - 15.9 - - WSW 61 74 33 40 1003.0 - 1.4
20/08:00pm 15.7 - 16.2 - - WSW 65 74 35 40 1002.6 - 1.4
20/07:30pm 16.2 - 16.7 - - WSW 65 76 35 41 1001.7 - 1.4
20/07:12pm 16.5 - 17.0 - - WSW 63 82 34 44 1001.4 - 1.4
20/07:00pm 16.5 - 17.0 - - WSW 69 80 37 43 1001.1 - 1.4
20/06:30pm 16.8 - 17.3 - - WSW 69 78 37 42 1000.4 - 1.4
20/06:00pm 16.0 - 16.9 - - WSW 72 91 39 49 999.6 999.4 1.4
20/05:59pm 16.0 - 16.9 - - WSW 72 91 39 49 999.5 - 1.4
20/05:49pm 15.4 - 16.3 - - WSW 78 85 42 46 999.0 - 1.4
20/05:44pm 15.6 - 16.5 - - WSW 57 76 31 41 999.2 - 1.4
20/05:30pm 17.1 - 17.7 - - WSW 52 59 28 32 999.1 - 1.4
20/05:00pm 16.0 - 16.9 - - SW 61 74 33 40 998.4 - 1.4
20/04:30pm 16.3 - - - - WSW 61 70 33 38 997.5 - 1.4
20/04:00pm 15.7 - - - - SW 57 69 31 37 996.8 - 1.4
20/03:30pm 15.5 - - - - SW 65 78 35 42 996.0 - 1.4
20/03:00pm 15.6 - - - - WSW 65 74 35 40 995.3 995.0 1.4
20/02:30pm 15.5 - - - - WSW 70 83 38 45 994.4 - 1.4
20/02:00pm 15.8 - - - - W 78 91 42 49 993.3 - 1.2
20/01:30pm 16.6 - - - - W 76 91 41 49 992.1 - 1.2
20/01:00pm 15.8 - - - - W 70 83 38 45 992.0 - 1.2
20/12:30pm 16.1 - - - - W 57 67 31 36 992.1 - 1.2
20/12:00pm 16.1 - - - - W 54 61 29 33 992.0 991.8 1.2
20/11:30am 16.9 - - - - W 48 57 26 31 991.6 - 1.2
20/11:00am 16.9 - - - - W 46 52 25 28 991.2 - 1.2
20/10:35am 16.1 - - - - WNW 50 57 27 31 991.1 - 1.2
20/10:30am 16.2 - - - - NW 43 57 23 31 991.1 - 0.8
20/10:24am 16.1 - - - - NW 37 50 20 27 991.2 - 0.6
20/10:00am 16.1 - - - - N 28 37 15 20 991.5 - 0.4
20/09:30am 16.1 - - - - N 32 39 17 21 991.6 - 0.4
20/09:00am 15.9 - - - - N 28 35 15 19 992.1 991.9 9.8
20/08:30am 16.0 - - - - NNE 22 28 12 15 992.1 - 7.6
20/08:00am 16.1 - - - - NNE 30 35 16 19 991.8 - 4.4
20/07:30am 15.4 - - - - NE 30 35 16 19 992.1 - 4.2
20/07:00am 15.8 - - - - NNE 28 33 15 18 992.9 - 4.2
20/06:30am 16.2 - - - - NNE 22 28 12 15 994.0 - 3.4
20/06:00am 16.4 - - - - NE 15 17 8 9 995.5 995.2 2.6
20/05:30am 16.5 - - - - NE 15 19 8 10 996.9 - 2.0
20/05:00am 16.7 - - - - ENE 13 17 7 9 997.7 - 1.4
20/04:30am 16.7 - 17.8 - - E 17 20 9 11 998.3 - 0.2
20/04:00am 16.8 - 17.9 - - ESE 22 28 12 15 998.8 - 0.0
20/03:30am 16.9 - 17.8 - - E 24 26 13 14 999.6 - 0.0
20/03:00am 17.0 - 17.9 - - E 26 30 14 16 999.9 999.7 0.0
20/02:53am 17.1 - 17.9 - - E 20 28 11 15 1000.5 - 0.0
20/02:30am 17.0 - 17.8 - - ENE 41 46 22 25 998.9 - 0.0
20/02:00am 17.1 - 17.9 - - ENE 50 61 27 33 999.0 - 0.0
20/01:30am 17.1 - 17.7 - - ENE 56 67 30 36 999.8 - 0.0
20/01:00am 17.0 - 17.6 - - ENE 54 63 29 34 1000.5 - 0.0
20/12:30am 16.9 - 17.5 - - E 56 67 30 36 1001.1 - 0.0
20/12:15am 16.8 - 17.3 - - E 56 74 30 40 1001.6 - 0.0
20/12:00am 16.7 - 17.2 - - E 56 67 30 36 1001.6 1001.4 0.0
 
Date/Time
EDT
Temp
°C
App
Temp
°C
Dew
Point
°C
Rel
Hum
%
Delta-T
°C
Wind Press
QNH
hPa
Press
MSL
hPa
Rain since
9am
mm
Dir  Spd
km/h
Gust
km/h
Spd
kts
Gust
kts
19/11:30pm 16.6 - 17.1 - - E 56 67 30 36 1002.8 - 0.0
19/11:00pm 16.6 - 16.9 - - E 57 69 31 37 1003.7 - 0.0
19/10:30pm 17.0 - 17.5 - - E 50 61 27 33 1004.8 - 0.0
19/10:00pm 16.4 - 16.9 - - E 48 57 26 31 1005.6 - 0.0
19/09:30pm 16.3 - 16.6 - - E 54 61 29 33 1006.5 - 0.0
19/09:00pm 16.2 - 16.5 - - E 52 59 28 32 1007.3 1007.1 0.0
19/08:30pm 16.0 - 16.2 - - E 57 65 31 35 1007.6 - 0.0
19/08:00pm 16.3 7.8 16.3 100 0.0 E 56 63 30 34 1008.4 - 0.0
19/07:30pm 16.3 7.6 16.3 100 0.0 E 57 67 31 36 1008.3 - 0.0
19/07:00pm 16.6 7.9 16.4 99 0.1 E 57 67 31 36 1008.4 - 0.0
19/06:30pm 17.2 9.0 17.0 99 0.1 E 56 65 30 35 1008.8 - 0.0
19/06:00pm 17.1 9.2 16.8 98 0.2 E 54 63 29 34 1009.3 1009.1 0.0
19/05:30pm 17.3 9.2 16.3 94 0.6 E 54 63 29 34 1009.6 - 0.0
19/05:00pm 17.8 8.6 16.0 89 1.1 E 59 67 32 36 1009.9 - 0.0
19/04:30pm 18.4 9.7 16.4 88 1.2 E 57 65 31 35 1010.2 - 0.0
19/04:00pm 18.9 10.8 16.5 86 1.4 E 54 63 29 34 1011.0 - 0.0
19/03:30pm 19.0 11.2 16.2 84 1.7 E 52 67 28 36 1011.4 - 0.0
19/03:00pm 19.1 11.8 16.5 85 1.6 E 50 57 27 31 1012.2 1012.0 0.0
19/02:30pm 19.2 13.5 17.2 88 1.2 E 43 54 23 29 1012.4 - 0.0
19/02:00pm 20.8 17.3 18.7 88 1.3 E 35 44 19 24 1012.9 - 0.0
19/01:30pm 20.1 16.1 17.7 86 1.5 E 35 41 19 22 1013.3 - 0.0
19/01:00pm 20.2 16.5 17.4 84 1.7 ENE 33 39 18 21 1013.8 - 0.0
19/12:30pm 19.7 15.8 16.5 82 1.9 ENE 32 37 17 20 1014.1 - 0.0
19/12:00pm 19.8 15.9 16.4 81 2.1 ENE 32 37 17 20 1014.2 1014.0 0.0
19/11:30am 19.0 15.7 16.0 83 1.8 ENE 28 33 15 18 1014.3 - 0.0
19/11:00am 18.7 15.6 15.6 82 1.8 ENE 26 30 14 16 1014.5 - 0.0

Other Formats:

Comma delimited format used in spreadsheet applications
http://www.bom.gov.au/fwo/IDT60801/IDT60801.94949.axf

JavaScript Object Notation format (JSON) in row-major order
http://www.bom.gov.au/fwo/IDT60801/IDT60801.94949.json